createdAt,value
2018-09-01T00:03:07.126Z,14.50
2018-09-01T00:05:36.798Z,14.50
2018-09-01T00:08:05.732Z,14.50
2018-09-01T00:10:34.576Z,14.40
2018-09-01T00:13:03.500Z,14.30
2018-09-01T00:18:02.056Z,14.30
2018-09-01T00:22:59.420Z,13.10
2018-09-01T00:27:56.801Z,14.20
2018-09-01T00:30:25.647Z,14.20
2018-09-01T00:32:54.610Z,14.10
2018-09-01T00:35:23.480Z,14.10
2018-09-01T00:40:28.583Z,14.00
2018-09-01T00:42:59.346Z,14.10
2018-09-01T00:45:28.544Z,14.00
2018-09-01T00:50:26.267Z,12.80
2018-09-01T00:52:55.141Z,13.90
2018-09-01T00:55:29.395Z,13.90
2018-09-01T00:57:58.249Z,13.80
2018-09-01T01:02:55.680Z,13.80
2018-09-01T01:07:53.151Z,13.80
2018-09-01T01:10:22.041Z,13.80
2018-09-01T01:17:48.677Z,13.40
2018-09-01T01:32:44.831Z,13.60
2018-09-01T01:35:13.658Z,13.60
2018-09-01T01:37:42.505Z,13.60
2018-09-01T01:40:11.356Z,13.40
2018-09-01T01:42:40.249Z,13.40
2018-09-01T01:45:09.165Z,13.40
2018-09-01T01:47:39.990Z,13.40
2018-09-01T01:50:09.922Z,13.40
2018-09-01T01:52:38.859Z,13.30
2018-09-01T01:55:07.815Z,13.40
2018-09-01T01:57:51.746Z,13.30
2018-09-01T02:00:20.679Z,13.30
2018-09-01T02:02:49.840Z,13.20
2018-09-01T02:05:19.696Z,13.20
2018-09-01T02:07:49.801Z,13.20
2018-09-01T02:10:18.639Z,13.10
2018-09-01T02:12:47.513Z,13.10
2018-09-01T02:15:16.415Z,13.10
2018-09-01T02:17:45.316Z,13.10
2018-09-01T02:20:14.292Z,13.10
2018-09-01T02:22:43.203Z,13.10
2018-09-01T02:25:12.068Z,13.00
2018-09-01T02:27:40.922Z,13.00
2018-09-01T02:30:09.850Z,13.00
2018-09-01T02:32:38.708Z,13.00
2018-09-01T02:35:07.590Z,12.90
2018-09-01T02:37:37.501Z,12.90
2018-09-01T02:40:06.352Z,12.90
2018-09-01T02:42:35.225Z,12.90
2018-09-01T02:45:04.594Z,12.90
2018-09-01T02:47:33.462Z,12.90
2018-09-01T02:50:02.374Z,12.80
2018-09-01T02:52:31.261Z,12.80
2018-09-01T02:55:00.119Z,12.80
2018-09-01T02:57:29.108Z,12.80
2018-09-01T02:59:57.956Z,12.80
2018-09-01T03:22:22.785Z,12.70
2018-09-01T03:27:20.214Z,12.60
2018-09-01T03:29:49.094Z,12.60
2018-09-01T03:32:17.961Z,12.60
2018-09-01T03:34:46.788Z,12.50
2018-09-01T03:42:16.567Z,12.50
2018-09-01T03:44:45.403Z,12.50
2018-09-01T03:47:14.317Z,12.50
2018-09-01T03:49:43.244Z,12.40
2018-09-01T03:52:12.106Z,12.40
2018-09-01T03:54:40.976Z,12.40
2018-09-01T03:57:09.895Z,12.40
2018-09-01T03:59:38.877Z,12.30
2018-09-01T04:02:07.708Z,12.30
2018-09-01T04:04:36.546Z,12.30
2018-09-01T04:07:05.408Z,12.30
2018-09-01T04:09:34.287Z,12.30
2018-09-01T04:12:03.140Z,12.30
2018-09-01T04:14:32.033Z,12.30
2018-09-01T04:17:01.051Z,12.20
2018-09-01T04:19:29.989Z,12.20
2018-09-01T04:21:58.867Z,12.20
2018-09-01T04:24:27.804Z,12.20
2018-09-01T04:26:56.708Z,12.20
2018-09-01T04:29:25.607Z,12.10
2018-09-01T04:31:54.476Z,12.10
2018-09-01T04:34:23.301Z,12.10
2018-09-01T04:36:52.512Z,12.10
2018-09-01T04:39:21.468Z,12.00
2018-09-01T04:41:50.357Z,12.10
2018-09-01T04:44:19.206Z,12.00
2018-09-01T04:46:48.092Z,12.00
2018-09-01T04:49:17.083Z,12.00
2018-09-01T04:51:45.952Z,12.00
2018-09-01T04:54:14.842Z,12.00
2018-09-01T04:56:43.703Z,12.00
2018-09-01T04:59:12.637Z,12.00
2018-09-01T05:01:41.469Z,12.00
2018-09-01T05:04:10.359Z,12.00
2018-09-01T05:06:39.342Z,12.00
2018-09-01T05:09:09.384Z,11.90
2018-09-01T05:11:38.240Z,11.90
2018-09-01T05:14:07.137Z,11.90
2018-09-01T05:16:36.130Z,11.90
2018-09-01T05:19:05.010Z,11.90
2018-09-01T05:21:33.996Z,11.90
2018-09-01T05:24:02.900Z,11.90
2018-09-01T05:26:31.737Z,12.00
2018-09-01T05:29:00.597Z,12.00
2018-09-01T05:31:30.231Z,12.00
2018-09-01T05:33:59.176Z,12.10
2018-09-01T05:36:28.071Z,12.10
2018-09-01T05:38:56.904Z,12.20
2018-09-01T05:41:25.957Z,12.30
2018-09-01T05:43:54.916Z,12.40
2018-09-01T05:46:23.799Z,12.40
2018-09-01T05:48:52.726Z,12.60
2018-09-01T05:51:21.868Z,12.70
2018-09-01T05:53:50.889Z,12.80
2018-09-01T05:56:20.077Z,12.90
2018-09-01T05:58:48.930Z,13.10
2018-09-01T06:01:18.489Z,13.20
2018-09-01T06:03:47.371Z,13.30
2018-09-01T06:06:16.247Z,13.50
2018-09-01T06:08:45.111Z,13.60
2018-09-01T06:11:13.948Z,13.70
2018-09-01T06:13:42.834Z,13.80
2018-09-01T06:16:11.663Z,13.80
2018-09-01T06:18:40.505Z,13.90
2018-09-01T06:21:09.337Z,14.00
2018-09-01T06:23:38.192Z,14.00
2018-09-01T06:26:07.088Z,14.00
2018-09-01T06:28:45.270Z,14.10
2018-09-01T06:31:14.538Z,14.10
2018-09-01T06:33:43.408Z,14.10
2018-09-01T06:36:12.277Z,14.20
2018-09-01T06:38:41.195Z,14.20
2018-09-01T06:41:10.075Z,14.20
2018-09-01T06:43:38.956Z,14.20
2018-09-01T06:46:07.831Z,14.30
2018-09-01T06:48:36.688Z,14.30
2018-09-01T06:51:05.672Z,14.30
2018-09-01T06:53:34.544Z,14.30
2018-09-01T06:56:03.464Z,14.40
2018-09-01T06:58:32.361Z,14.40
2018-09-01T07:01:01.305Z,14.40
2018-09-01T07:03:30.241Z,14.40
2018-09-01T07:05:59.178Z,14.50
2018-09-01T07:08:28.083Z,14.50
2018-09-01T07:10:56.960Z,14.60
2018-09-01T07:13:25.880Z,14.60
2018-09-01T07:15:54.746Z,14.60
2018-09-01T07:18:23.635Z,14.70
2018-09-01T07:20:52.500Z,14.70
2018-09-01T07:23:21.383Z,14.70
2018-09-01T07:25:50.277Z,14.80
2018-09-01T07:28:19.154Z,14.90
2018-09-01T07:30:48.239Z,14.90
2018-09-01T07:33:16.882Z,14.90
2018-09-01T07:35:45.967Z,15.00
2018-09-01T07:38:14.890Z,15.00
2018-09-01T07:40:43.729Z,15.10
2018-09-01T07:43:12.634Z,14.90
2018-09-01T07:45:41.610Z,15.20
2018-09-01T07:48:10.488Z,15.20
2018-09-01T07:50:39.374Z,15.30
2018-09-01T07:53:08.233Z,15.40
2018-09-01T07:55:37.135Z,15.40
2018-09-01T07:58:06.228Z,15.50
2018-09-01T08:00:35.208Z,15.60
2018-09-01T08:03:05.343Z,15.70
2018-09-01T08:05:34.254Z,15.70
2018-09-01T08:08:03.244Z,15.80
2018-09-01T08:10:32.116Z,15.90
2018-09-01T08:13:01.633Z,16.10
2018-09-01T08:15:30.612Z,16.10
2018-09-01T08:17:59.570Z,16.20
2018-09-01T08:20:28.478Z,16.30
2018-09-01T08:25:49.257Z,16.40
2018-09-01T08:28:18.972Z,16.60
2018-09-01T08:35:55.321Z,16.80
2018-09-01T08:38:24.241Z,17.00
2018-09-01T08:40:53.104Z,17.20
2018-09-01T08:43:22.322Z,17.40
2018-09-01T08:45:51.153Z,17.60
2018-09-01T08:48:20.024Z,17.80
2018-09-01T08:50:48.933Z,18.10
2018-09-01T09:00:57.753Z,19.60
2018-09-01T09:03:26.798Z,20.00
2018-09-01T09:05:55.669Z,20.30
2018-09-01T09:08:24.546Z,20.60
2018-09-01T09:10:53.507Z,20.90
2018-09-01T09:13:22.444Z,21.10
2018-09-01T09:15:51.450Z,21.60
2018-09-01T09:18:22.328Z,22.10
2018-09-01T09:20:51.191Z,22.40
2018-09-01T09:23:20.058Z,22.70
2018-09-01T09:28:17.454Z,23.20
2018-09-01T09:33:14.894Z,23.90
2018-09-01T09:35:44.606Z,23.90
2018-09-01T09:38:13.658Z,24.20
2018-09-01T09:40:42.689Z,24.40
2018-09-01T09:43:11.626Z,24.60
2018-09-01T10:35:24.147Z,27.40
2018-09-01T10:37:53.051Z,27.30
2018-09-01T10:40:21.920Z,27.30
2018-09-01T10:42:50.748Z,27.30
2018-09-01T10:45:19.670Z,27.40
2018-09-01T10:47:48.972Z,27.40
2018-09-01T15:08:27.285Z,30.30
2018-09-01T15:10:56.163Z,30.30
2018-09-01T15:13:25.028Z,30.20
2018-09-01T15:15:53.904Z,30.10
2018-09-01T15:18:22.775Z,30.10
2018-09-01T15:20:52.454Z,30.00
2018-09-01T15:23:21.481Z,30.00
2018-09-01T15:25:50.717Z,30.00
2018-09-01T15:28:20.487Z,30.00
2018-09-01T15:30:50.227Z,30.00
2018-09-01T15:33:19.237Z,29.90
2018-09-01T15:35:48.108Z,29.90
2018-09-01T15:38:17.986Z,29.90
2018-09-01T15:40:46.866Z,29.90
2018-09-01T15:43:15.731Z,29.80
2018-09-01T15:45:44.968Z,29.90
2018-09-01T15:48:15.449Z,29.80
2018-09-01T15:50:44.345Z,29.90
2018-09-01T15:53:13.523Z,29.90
2018-09-01T15:55:42.366Z,29.90
2018-09-01T15:58:11.417Z,29.90
2018-09-01T16:00:40.356Z,29.90
2018-09-01T16:03:09.332Z,29.90
2018-09-01T16:05:38.781Z,29.90
2018-09-01T16:08:07.642Z,29.90
2018-09-01T16:10:53.706Z,29.90
2018-09-01T16:13:33.465Z,29.90
2018-09-01T16:16:05.778Z,29.90
2018-09-01T16:35:11.412Z,29.60
2018-09-01T16:37:40.333Z,29.50
2018-09-01T16:40:09.158Z,29.40
2018-09-01T16:42:38.285Z,29.50
2018-09-01T16:45:07.287Z,29.40
2018-09-01T16:47:36.261Z,29.30
2018-09-01T16:50:05.169Z,29.20
2018-09-01T16:52:34.689Z,29.20
2018-09-01T16:55:04.223Z,29.20
2018-09-01T16:57:33.152Z,29.10
2018-09-01T17:00:02.040Z,29.10
2018-09-01T17:02:30.982Z,29.00
2018-09-01T17:04:59.886Z,28.90
2018-09-01T17:07:28.902Z,28.80
2018-09-01T17:09:59.359Z,28.70
2018-09-01T17:12:28.547Z,28.60
2018-09-01T17:14:57.436Z,28.50
2018-09-01T17:17:26.287Z,28.40
2018-09-01T17:19:56.091Z,28.40
2018-09-01T17:22:24.951Z,28.30
2018-09-01T17:24:53.882Z,28.20
2018-09-01T17:34:48.605Z,27.60
2018-09-01T17:37:17.602Z,27.70
2018-09-01T17:39:46.572Z,27.50
2018-09-01T17:42:15.448Z,27.40
2018-09-01T17:44:44.529Z,27.40
2018-09-01T17:47:13.571Z,27.20
2018-09-01T21:03:01.778Z,19.70
2018-09-01T21:05:30.691Z,19.50
2018-09-01T21:07:59.586Z,19.40
2018-09-01T21:10:28.407Z,19.30
2018-09-01T21:12:57.335Z,19.30
2018-09-01T21:15:26.200Z,19.20
2018-09-01T21:17:55.020Z,19.20
2018-09-01T21:20:23.873Z,19.10
2018-09-01T21:22:52.708Z,19.10
2018-09-01T21:25:21.640Z,19.00
2018-09-01T21:27:50.606Z,19.00
2018-09-01T21:30:19.503Z,18.90
2018-09-01T21:32:48.532Z,18.90
2018-09-01T21:35:17.393Z,18.80
2018-09-01T21:37:49.067Z,18.80
2018-09-01T21:40:18.029Z,18.80
2018-09-01T21:42:47.138Z,18.70
2018-09-01T21:45:16.041Z,18.70
2018-09-01T21:47:45.038Z,18.60
2018-09-01T21:50:13.941Z,18.60
2018-09-01T21:52:42.812Z,18.50
2018-09-01T21:55:11.653Z,18.50
2018-09-01T21:57:40.523Z,18.50
2018-09-01T22:00:10.104Z,18.40
2018-09-01T22:02:38.997Z,18.40
2018-09-01T22:05:13.187Z,18.30
2018-09-01T22:07:42.120Z,18.30
2018-09-01T22:10:11.018Z,18.20
2018-09-01T22:12:39.882Z,18.20
2018-09-01T22:15:08.806Z,18.20
2018-09-01T22:17:37.693Z,18.10
2018-09-01T22:20:06.585Z,18.10
2018-09-01T22:22:35.470Z,18.10
2018-09-01T22:25:10.275Z,18.00
2018-09-01T22:27:39.540Z,17.90
2018-09-01T22:30:09.291Z,17.90
2018-09-01T22:32:38.149Z,17.90
2018-09-01T22:35:07.009Z,17.90
2018-09-01T22:37:35.884Z,17.80
2018-09-01T22:40:04.920Z,17.80
2018-09-01T22:42:34.694Z,17.70
2018-09-01T22:45:03.593Z,17.70
2018-09-01T22:47:34.071Z,17.70
2018-09-01T22:50:02.951Z,17.60
2018-09-01T22:52:31.910Z,17.60
2018-09-01T22:55:00.783Z,17.60
2018-09-01T22:57:29.736Z,17.50
2018-09-01T22:59:58.672Z,17.50
2018-09-01T23:02:27.558Z,17.50
2018-09-01T23:04:56.407Z,17.40
2018-09-01T23:07:25.352Z,17.40
2018-09-01T23:09:54.191Z,17.30
2018-09-01T23:12:23.076Z,17.30
2018-09-01T23:14:52.017Z,17.30
2018-09-01T23:17:20.994Z,17.20
2018-09-01T23:19:49.883Z,17.20
2018-09-01T23:22:18.742Z,17.20
2018-09-01T23:24:47.615Z,17.10
2018-09-01T23:27:16.475Z,17.10
2018-09-01T23:29:45.344Z,17.10
2018-09-01T23:32:14.172Z,17.00
2018-09-01T23:34:43.068Z,17.00
2018-09-01T23:37:11.946Z,17.00
2018-09-01T23:39:40.786Z,17.00
2018-09-01T23:42:09.685Z,16.90
2018-09-01T23:44:38.548Z,16.90
2018-09-01T23:47:07.565Z,16.90
2018-09-01T23:49:36.416Z,16.80
2018-09-01T23:52:05.333Z,16.80
2018-09-01T23:54:34.295Z,16.80
2018-09-01T23:57:03.211Z,16.70
2018-09-01T23:59:32.154Z,16.70
